createdAt,value
2022-12-18T08:10:28.935Z,23.65
2022-12-18T08:12:57.835Z,27.38
2022-12-18T08:15:28.227Z,26.73
2022-12-18T08:17:57.909Z,38.28
2022-12-18T08:20:24.674Z,25.33
2022-12-18T08:22:51.366Z,36.10
2022-12-18T08:25:18.122Z,29.90
2022-12-18T08:27:44.811Z,37.47
2022-12-18T08:30:12.040Z,30.42
2022-12-18T08:32:38.744Z,34.20
2022-12-18T08:35:06.461Z,32.15
2022-12-18T08:37:33.380Z,27.25
2022-12-18T08:40:00.289Z,33.55
2022-12-18T08:42:45.481Z,31.67
2022-12-18T08:45:12.292Z,31.35
2022-12-18T08:47:39.073Z,20.58
2022-12-18T08:50:07.031Z,33.80
2022-12-18T08:52:33.918Z,35.13
2022-12-18T08:55:00.645Z,34.33
2022-12-18T08:57:27.305Z,29.00
2022-12-18T08:59:54.197Z,27.98
2022-12-18T09:02:23.737Z,31.05
2022-12-18T09:04:57.346Z,25.67
2022-12-18T09:07:27.501Z,30.73
2022-12-18T09:09:54.342Z,23.70
2022-12-18T09:12:21.572Z,24.52
2022-12-18T09:14:48.245Z,26.73
2022-12-18T09:17:14.981Z,27.50
2022-12-18T09:19:41.870Z,27.92
2022-12-18T09:22:08.570Z,30.13
2022-12-18T09:24:35.297Z,25.17
2022-12-18T09:27:02.249Z,31.88
2022-12-18T09:29:29.556Z,24.83
2022-12-18T09:31:56.232Z,24.15
2022-12-18T09:34:23.079Z,27.35
2022-12-18T09:36:50.202Z,26.23
2022-12-18T09:39:17.982Z,24.92
2022-12-18T09:41:56.815Z,23.88
2022-12-18T09:44:43.030Z,24.00
2022-12-18T09:47:37.632Z,23.50
2022-12-18T09:50:24.952Z,17.45
2022-12-18T09:52:56.132Z,18.25
2022-12-18T09:55:43.546Z,17.58
2022-12-18T09:58:10.986Z,21.63
2022-12-18T10:00:37.758Z,20.25
2022-12-18T10:03:11.485Z,16.55
2022-12-18T10:06:07.743Z,14.95
2022-12-18T10:08:52.145Z,16.85
2022-12-18T10:11:21.894Z,14.88
2022-12-18T10:13:58.008Z,19.63
2022-12-18T10:16:40.586Z,18.25
2022-12-18T10:19:50.198Z,22.23
2022-12-18T10:22:35.306Z,18.27
2022-12-18T10:25:26.345Z,16.83
2022-12-18T10:27:58.416Z,19.27
2022-12-18T10:30:26.650Z,23.88
2022-12-18T10:32:53.757Z,26.98
2022-12-18T10:35:26.713Z,18.88
2022-12-18T10:38:04.333Z,20.73
2022-12-18T10:40:31.691Z,20.10
2022-12-18T10:43:13.625Z,20.65
2022-12-18T10:45:40.847Z,20.95
2022-12-18T10:48:20.954Z,25.75
2022-12-18T10:53:38.589Z,32.03
2022-12-18T10:56:07.440Z,27.48
2022-12-18T10:58:39.581Z,23.42
2022-12-18T11:01:16.792Z,25.92
2022-12-18T11:03:45.208Z,20.02
2022-12-18T11:06:17.629Z,21.63
2022-12-18T11:08:57.652Z,22.00
2022-12-18T11:11:25.261Z,23.58
2022-12-18T11:14:00.548Z,26.30
2022-12-18T11:16:28.776Z,27.98
2022-12-18T11:18:56.190Z,28.77
2022-12-18T11:21:22.999Z,26.10
2022-12-18T11:23:54.466Z,17.27
2022-12-18T11:26:22.726Z,18.80
2022-12-18T11:29:10.037Z,17.77
2022-12-18T11:31:36.939Z,21.58
2022-12-18T11:34:31.361Z,17.15
2022-12-18T11:37:01.530Z,17.95
2022-12-18T11:39:44.064Z,19.23
2022-12-18T11:42:25.292Z,20.90
2022-12-18T11:45:16.266Z,19.65
2022-12-18T11:47:45.768Z,17.30
2022-12-18T11:50:38.233Z,15.95
2022-12-18T11:53:06.390Z,15.55
2022-12-18T11:55:45.358Z,17.15
2022-12-18T11:58:40.124Z,17.30
2022-12-18T12:01:43.341Z,14.07
2022-12-18T12:04:26.003Z,15.25
2022-12-18T12:07:12.571Z,13.98
2022-12-18T12:10:08.501Z,16.85
2022-12-18T12:12:52.702Z,19.25
2022-12-18T12:15:28.040Z,15.77
2022-12-18T12:18:25.641Z,17.17
2022-12-18T12:21:07.467Z,16.80
2022-12-18T12:23:47.860Z,16.25
2022-12-18T12:26:17.632Z,20.42
2022-12-18T12:29:01.808Z,16.42
2022-12-18T12:31:54.096Z,16.45
2022-12-18T12:34:27.485Z,16.40
2022-12-18T12:37:14.514Z,15.38
2022-12-18T12:39:45.463Z,17.70
2022-12-18T12:42:56.350Z,14.85
2022-12-18T12:45:31.903Z,13.90
2022-12-18T12:48:00.642Z,17.30
2022-12-18T12:50:27.950Z,19.13
2022-12-18T12:53:00.993Z,21.00
2022-12-18T12:55:57.329Z,17.98
2022-12-18T12:58:46.818Z,19.15
2022-12-18T13:01:49.115Z,12.52
2022-12-18T13:04:40.169Z,17.48
2022-12-18T13:07:16.641Z,16.50
2022-12-18T13:10:14.512Z,15.10
2022-12-18T13:12:59.868Z,18.35
2022-12-18T13:15:48.205Z,14.30
2022-12-18T13:18:19.578Z,14.98
2022-12-18T13:20:55.209Z,13.48
2022-12-18T13:23:31.854Z,16.17
2022-12-18T13:26:27.966Z,14.55
2022-12-18T13:28:56.881Z,17.50
2022-12-18T13:31:42.623Z,15.20
2022-12-18T13:34:27.884Z,16.80
2022-12-18T13:36:57.275Z,16.30
2022-12-18T13:39:35.242Z,13.27
2022-12-18T13:42:05.600Z,16.17
2022-12-18T13:44:40.342Z,17.73
2022-12-18T13:47:38.602Z,17.67
2022-12-18T13:50:33.927Z,17.80
2022-12-18T13:53:05.634Z,18.63
2022-12-18T13:55:33.317Z,19.95
2022-12-18T13:58:06.921Z,18.20
2022-12-18T14:00:37.008Z,19.58
2022-12-18T14:03:21.839Z,17.45
2022-12-18T14:05:56.339Z,22.35
2022-12-18T14:08:27.277Z,21.60
2022-12-18T14:10:54.560Z,21.15
2022-12-18T14:13:39.056Z,20.58
2022-12-18T14:16:08.356Z,20.63
2022-12-18T14:18:51.593Z,25.67
2022-12-18T14:21:20.041Z,19.23
2022-12-18T14:23:47.027Z,21.00
2022-12-18T14:26:31.257Z,25.27
2022-12-18T14:29:01.971Z,18.25
2022-12-18T14:31:31.603Z,20.60
2022-12-18T14:33:58.635Z,18.63
2022-12-18T14:36:29.114Z,22.30
2022-12-18T14:38:58.455Z,22.15
2022-12-18T14:41:28.704Z,23.20
2022-12-18T14:44:11.198Z,24.15
2022-12-18T14:46:43.978Z,23.05
2022-12-18T14:49:31.138Z,18.27
2022-12-18T14:52:03.467Z,14.23
2022-12-18T14:54:35.080Z,13.75
2022-12-18T14:57:03.478Z,12.98
2022-12-18T14:59:31.304Z,18.05
2022-12-18T15:02:00.330Z,18.20
2022-12-18T15:04:45.613Z,16.73
2022-12-18T15:07:14.698Z,20.70
2022-12-18T15:09:46.909Z,17.40
2022-12-18T15:12:36.629Z,13.65
2022-12-18T15:15:04.749Z,15.00
2022-12-18T15:17:32.491Z,13.57
2022-12-18T15:20:10.473Z,12.88
2022-12-18T15:22:38.557Z,12.05
2022-12-18T15:25:28.520Z,16.63
2022-12-18T15:27:55.334Z,15.55
2022-12-18T15:30:23.901Z,12.18
2022-12-18T15:32:51.677Z,15.88
2022-12-18T15:35:24.563Z,14.80
2022-12-18T15:37:53.178Z,16.92
2022-12-18T15:40:22.729Z,14.75
2022-12-18T15:43:10.965Z,18.35
2022-12-18T15:45:37.749Z,13.02
2022-12-18T15:48:22.312Z,10.93
2022-12-18T15:50:51.284Z,15.88
2022-12-18T15:53:18.796Z,13.20
2022-12-18T15:56:03.990Z,12.75
2022-12-18T15:58:31.643Z,15.50
2022-12-18T16:01:00.176Z,14.45
2022-12-18T16:03:27.065Z,17.23
2022-12-18T16:05:54.888Z,13.98
2022-12-18T16:08:31.926Z,13.73
2022-12-18T16:10:59.255Z,13.57
2022-12-18T16:13:26.547Z,13.73
2022-12-18T16:15:54.826Z,14.77
2022-12-18T16:18:21.650Z,14.68
2022-12-18T16:20:48.532Z,18.88
2022-12-18T16:23:15.367Z,19.63
2022-12-18T16:25:45.148Z,14.25
2022-12-18T16:28:11.930Z,13.35
2022-12-18T16:30:38.920Z,15.10
2022-12-18T16:33:06.923Z,12.73
2022-12-18T16:35:35.003Z,14.48
2022-12-18T16:38:02.396Z,14.13
